Main page
METAR-TAF:

METAR-TAF

Airports :

Morón Air Base

Morón de la Frontera, Spain

latitude: 37-09N, longitude: 005-37W, elevation: 87 m

Current weather observation

The report was made 17 minutes ago, at 04:00 UTC
Wind 3 kt from the North, varying between Northwest and North/Northeast
Temperature 7°C
Humidity 93%
Pressure 1023 hPa
Visibility: 8000 m
Few clouds at a height of 500 ft

METAR: LEMO 270400Z 35003KT 320V020 8000 FEW005 07/06 Q1023 NOSIG

Time: 05:17 (04:17 UTC)

Forecast

The report was made 2 hours and 17 minutes ago, at 02:00 UTC
Forecast valid from 27 at 03 UTC to 28 at 03 UTC
Wind 5 kt from the East
Visibility 10 km or more
Few clouds at a height of 4000 ft
Probability 30% :
Temporary
from 27 at 03 UTC to 27 at 08 UTC
Visibility: 4000 m
Broken clouds at a height of 1000 ft
mist

TAF: LEMO 270200Z 2703/2803 09005KT 9999 FEW040 TX18/2715Z TN07/2707Z PROB30 TEMPO 2703/2708 4000 BR BKN010

Weather observations and forecasts of more than 4000 airports (METAR and TAF reports).

The available stations are represented by yellow and red dots on the map.

Hover mouse over dot to see the name of the station.

Then click to see weather observations and forecasts.

To change the map : click on the green buttons with a black cross to zoom in, on the green button with a dash to zoom out, or on the green arrows for adjacent maps.


METAR-TAF: